Terminal Aerodrome Forecast
Issued by NWS Portland, OR

Home | Current Version | Previous Version | Text Only | Print | Product List | Glossary On
Versions: 1 2 3 4 5 6 7 8 9 10 11 12 13 14 15 16 17 18 19 20 21 22 23 24
000
FTUS46 KPQR 102102 AAA
TAFSLE
TAF AMD
KSLE 102102Z 1021/1118 19012G20KT P6SM -RA SCT030 OVC050
     FM110000 21010G18KT P6SM -RA BKN025 OVC040
     FM110500 20009KT P6SM -SHRA BKN025 BKN050=

USA.gov is the U.S. government's official web portal to all federal, state and local government web resources and services.